Time;durP1;ratioP1;P1;durP2;ratioP2;P2;SDS_P1;SDS_P2;PMS_P1;PMS_P2;Temp;Humidity;BMP_temperature;BMP_pressure;BME280_temperature;BME280_humidity;BME280_pressure;Samples;Min_cycle;Max_cycle;Signal;HPM_P1;HPM_P2
2022/09/06 00:00:37;;;;;;;1.40;1.30;;;24.40;91.30;;;;;;5031772;28;20113;-26
2022/09/06 00:03:03;;;;;;;7.03;1.42;;;24.40;91.30;;;;;;5032312;28;20029;-25
2022/09/06 00:05:30;;;;;;;1.60;1.50;;;24.40;91.20;;;;;;5031781;28;20030;-25
2022/09/06 00:08:00;;;;;;;2.05;1.30;;;24.40;91.20;;;;;;5031811;28;20390;-25
2022/09/06 00:10:27;;;;;;;2.40;1.55;;;24.40;91.20;;;;;;5031646;28;20095;-26
2022/09/06 00:12:53;;;;;;;3.25;1.33;;;24.40;91.20;;;;;;5031911;28;20083;-25
2022/09/06 00:15:21;;;;;;;3.67;1.40;;;24.40;91.20;;;;;;5032243;28;20458;-25
2022/09/06 00:17:47;;;;;;;1.58;1.33;;;24.30;91.20;;;;;;5032148;28;20028;-25
2022/09/06 00:20:13;;;;;;;1.83;1.33;;;24.30;91.60;;;;;;5031376;28;20028;-25
2022/09/06 00:22:39;;;;;;;1.88;1.25;;;24.30;91.20;;;;;;5030428;28;20026;-25
2022/09/06 00:25:06;;;;;;;2.15;1.63;;;24.30;91.20;;;;;;5031793;28;20025;-25
2022/09/06 00:27:32;;;;;;;2.58;1.60;;;24.30;91.20;;;;;;5031450;28;20028;-25
2022/09/06 00:29:57;;;;;;;1.90;1.58;;;24.30;91.20;;;;;;5031516;28;20033;-25
2022/09/06 00:32:23;;;;;;;2.05;1.42;;;24.30;91.20;;;;;;5031665;28;20036;-25
2022/09/06 00:34:49;;;;;;;1.70;1.35;;;24.30;91.20;;;;;;5031541;28;20086;-25
2022/09/06 00:37:15;;;;;;;2.10;1.50;;;24.30;91.20;;;;;;5031558;28;20034;-25
2022/09/06 00:39:40;;;;;;;1.90;1.25;;;24.30;91.20;;;;;;5031455;28;20463;-26
2022/09/06 00:42:11;;;;;;;2.08;1.38;;;24.30;91.20;;;;;;5031468;28;20041;-25
2022/09/06 00:44:37;;;;;;;1.60;1.40;;;24.30;91.20;;;;;;5031542;28;20502;-25
2022/09/06 00:47:04;;;;;;;1.77;1.30;;;24.30;91.20;;;;;;5031355;28;20034;-25
2022/09/06 00:49:33;;;;;;;3.08;1.60;;;24.30;91.20;;;;;;5031242;28;20036;-25
2022/09/06 00:52:04;;;;;;;1.92;1.40;;;24.30;91.20;;;;;;5031458;28;20033;-25
2022/09/06 00:54:31;;;;;;;2.75;1.30;;;24.30;91.20;;;;;;5031458;28;20036;-25
2022/09/06 00:56:57;;;;;;;3.13;1.55;;;24.30;91.20;;;;;;5030111;28;20029;-25
2022/09/06 00:59:24;;;;;;;2.13;1.50;;;24.30;91.20;;;;;;5031106;28;20025;-25
2022/09/06 01:01:51;;;;;;;3.00;1.63;;;24.30;91.20;;;;;;5032717;28;20025;-25
2022/09/06 01:04:17;;;;;;;1.85;1.33;;;24.30;91.20;;;;;;5035215;28;20017;-26
2022/09/06 01:06:55;;;;;;;2.63;1.60;;;24.20;91.20;;;;;;5035002;28;20032;-25
2022/09/06 01:09:54;;;;;;;1.65;1.50;;;24.30;91.20;;;;;;5034744;28;20029;-25
2022/09/06 01:12:29;;;;;;;4.20;1.60;;;24.30;91.20;;;;;;5034722;28;20029;-25
2022/09/06 01:15:24;;;;;;;2.30;1.45;;;24.30;91.20;;;;;;5034830;28;20026;-25
2022/09/06 01:18:02;;;;;;;1.70;1.50;;;24.20;91.10;;;;;;5034639;28;20509;-25
2022/09/06 01:20:37;;;;;;;2.25;1.60;;;24.20;91.10;;;;;;5034501;28;20033;-25
2022/09/06 01:23:40;;;;;;;2.05;1.67;;;24.20;91.20;;;;;;5034696;28;20018;-25
2022/09/06 01:26:42;;;;;;;5.25;1.65;;;24.30;91.20;;;;;;5034743;28;20026;-25
2022/09/06 01:29:27;;;;;;;2.92;1.30;;;24.20;91.20;;;;;;5034421;28;20025;-25
2022/09/06 01:32:01;;;;;;;2.55;1.60;;;24.20;91.20;;;;;;5034426;28;20033;-25
2022/09/06 01:34:30;;;;;;;;;;;24.20;91.20;;;;;;5034994;28;20477;-25
2022/09/06 01:37:01;;;;;;;2.58;1.80;;;24.20;91.20;;;;;;5034436;28;19905;-25
2022/09/06 01:39:32;;;;;;;2.80;1.60;;;24.20;91.20;;;;;;5033968;28;20485;-25
2022/09/06 01:42:11;;;;;;;1.92;1.60;;;24.20;91.10;;;;;;5032997;28;20095;-25
2022/09/06 01:44:41;;;;;;;3.28;1.63;;;24.20;91.10;;;;;;5034428;28;20080;-25
2022/09/06 01:47:36;;;;;;;2.17;1.60;;;24.20;91.10;;;;;;5034065;28;20026;-26
2022/09/06 01:50:28;;;;;;;2.40;1.65;;;24.20;91.20;;;;;;5033994;28;20032;-25
2022/09/06 01:53:23;;;;;;;2.70;1.50;;;24.20;91.20;;;;;;5034160;28;20440;-25
2022/09/06 01:56:09;;;;;;;2.78;1.50;;;24.20;91.20;;;;;;5034164;28;20021;-25
2022/09/06 01:59:00;;;;;;;1.67;1.58;;;24.20;91.10;;;;;;5033706;28;20103;-25
2022/09/06 02:01:38;;;;;;;2.65;1.52;;;24.20;91.20;;;;;;5033907;28;20025;-25
2022/09/06 02:04:42;;;;;;;4.38;1.40;;;24.10;91.10;;;;;;5033976;28;20049;-26
2022/09/06 02:07:17;;;;;;;1.85;1.55;;;24.20;91.10;;;;;;5021119;28;20378;-25
2022/09/06 02:09:46;;;;;;;2.80;1.67;;;24.10;91.10;;;;;;5033744;28;20055;-25
2022/09/06 02:12:13;;;;;;;1.75;1.48;;;24.10;91.10;;;;;;5034258;28;20057;-25
2022/09/06 02:14:48;;;;;;;5.50;1.52;;;24.20;91.20;;;;;;5036234;28;20386;-25
2022/09/06 02:17:19;;;;;;;2.53;1.42;;;24.10;91.10;;;;;;5036639;28;20568;-25
2022/09/06 02:19:50;;;;;;;1.70;1.52;;;24.10;91.10;;;;;;5034720;28;20038;-25
2022/09/06 02:22:19;;;;;;;1.35;1.25;;;24.10;91.10;;;;;;5033610;28;20097;-25
2022/09/06 02:24:49;;;;;;;2.30;1.80;;;24.10;91.20;;;;;;5033668;28;20049;-25
2022/09/06 02:27:15;;;;;;;3.08;1.75;;;24.10;91.20;;;;;;5033434;28;20095;-25
2022/09/06 02:29:41;;;;;;;1.50;1.40;;;24.10;91.20;;;;;;5033330;28;20422;-25
2022/09/06 02:32:16;;;;;;;1.85;1.58;;;24.10;91.20;;;;;;5033449;28;20021;-25
2022/09/06 02:34:44;;;;;;;2.63;1.50;;;24.10;91.20;;;;;;5033431;28;20521;-25
2022/09/06 02:37:14;;;;;;;2.60;1.73;;;24.10;91.20;;;;;;5033263;28;20034;-25
2022/09/06 02:39:40;;;;;;;1.98;1.70;;;24.10;91.20;;;;;;5033104;28;20044;-25
2022/09/06 02:42:08;;;;;;;4.90;1.88;;;24.10;91.20;;;;;;5033431;28;20056;-25
2022/09/06 02:44:34;;;;;;;2.13;1.60;;;24.10;91.20;;;;;;5037067;28;20030;-25
2022/09/06 02:47:01;;;;;;;3.35;1.75;;;24.10;91.20;;;;;;5039737;28;20052;-25
2022/09/06 02:49:27;;;;;;;1.75;1.50;;;24.10;91.20;;;;;;5037889;28;20401;-25
2022/09/06 02:51:53;;;;;;;2.70;1.55;;;24.10;91.20;;;;;;5040581;28;20045;-25
2022/09/06 02:54:18;;;;;;;3.33;1.75;;;24.10;91.20;;;;;;5035336;28;20120;-25
2022/09/06 02:56:44;;;;;;;2.05;1.63;;;24.10;91.30;;;;;;5033308;28;20026;-25
2022/09/06 02:59:10;;;;;;;1.67;1.58;;;24.00;91.30;;;;;;5032604;28;20475;-25
2022/09/06 03:01:35;;;;;;;2.08;1.70;;;24.00;91.30;;;;;;5032987;28;20022;-25
2022/09/06 03:04:01;;;;;;;5.57;1.55;;;24.00;91.30;;;;;;5032958;28;20026;-25
2022/09/06 03:06:27;;;;;;;1.80;1.67;;;24.00;91.30;;;;;;5032820;28;20017;-25
2022/09/06 03:08:52;;;;;;;2.05;1.58;;;24.00;91.40;;;;;;5032436;28;20033;-25
2022/09/06 03:11:18;;;;;;;1.88;1.50;;;24.00;91.40;;;;;;5032533;28;20025;-25
2022/09/06 03:13:44;;;;;;;2.22;1.75;;;24.00;91.40;;;;;;5032558;28;20033;-26
2022/09/06 03:16:09;;;;;;;1.80;1.60;;;24.00;91.40;;;;;;5032529;28;20025;-25
2022/09/06 03:18:35;;;;;;;2.95;1.60;;;24.00;91.40;;;;;;5032217;28;20021;-25
2022/09/06 03:21:01;;;;;;;2.17;1.73;;;24.00;91.40;;;;;;5032464;28;20047;-25
2022/09/06 03:23:28;;;;;;;1.83;1.42;;;24.00;91.50;;;;;;5032605;28;20368;-25
2022/09/06 03:25:54;;;;;;;3.50;1.85;;;23.90;91.40;;;;;;5031502;28;20108;-25
2022/09/06 03:28:21;;;;;;;2.03;1.33;;;24.00;91.50;;;;;;5032254;28;20028;-25
2022/09/06 03:30:50;;;;;;;1.75;1.63;;;23.90;91.50;;;;;;5032254;28;20056;-25
2022/09/06 03:33:15;;;;;;;2.83;1.50;;;23.90;91.50;;;;;;5032795;28;20025;-25
2022/09/06 03:35:54;;;;;;;1.95;1.40;;;23.90;91.50;;;;;;5032313;28;20084;-25
2022/09/06 03:38:20;;;;;;;2.22;1.52;;;23.90;91.50;;;;;;5032218;28;20457;-25
2022/09/06 03:40:47;;;;;;;2.33;1.75;;;23.90;91.50;;;;;;5032239;28;20041;-25
2022/09/06 03:43:14;;;;;;;4.50;1.67;;;23.90;91.50;;;;;;5032237;28;20032;-25
2022/09/06 03:45:43;;;;;;;2.10;1.60;;;23.90;91.60;;;;;;5032176;28;20352;-25
2022/09/06 03:48:09;;;;;;;2.28;1.70;;;23.90;91.60;;;;;;5032049;28;20025;-25
2022/09/06 03:50:34;;;;;;;2.88;1.67;;;23.90;91.60;;;;;;5032388;28;20096;-25
2022/09/06 03:53:00;;;;;;;2.80;1.55;;;23.90;91.60;;;;;;5032215;28;20055;-25
2022/09/06 03:55:25;;;;;;;4.28;1.77;;;23.90;91.60;;;;;;5032202;28;20431;-25
2022/09/06 03:57:51;;;;;;;1.80;1.60;;;23.90;91.60;;;;;;5031823;28;20501;-25
2022/09/06 04:00:17;;;;;;;3.42;1.50;;;23.90;91.60;;;;;;5031868;28;20033;-25
2022/09/06 04:02:42;;;;;;;2.22;1.80;;;23.80;91.60;;;;;;5032118;28;20482;-25
2022/09/06 04:05:08;;;;;;;3.42;1.80;;;23.80;91.60;;;;;;5032044;28;20375;-25
2022/09/06 04:07:36;;;;;;;1.60;1.50;;;23.80;91.60;;;;;;5032062;28;20025;-25
2022/09/06 04:10:02;;;;;;;2.63;1.70;;;23.80;91.60;;;;;;5031724;28;20028;-25
2022/09/06 04:12:28;;;;;;;1.92;1.73;;;23.80;91.70;;;;;;5032059;28;20406;-25
2022/09/06 04:14:54;;;;;;;2.72;1.77;;;23.80;91.70;;;;;;5031921;28;20498;-25
2022/09/06 04:17:19;;;;;;;2.88;1.83;;;23.80;91.70;;;;;;5031751;28;20433;-25
2022/09/06 04:19:45;;;;;;;2.00;1.58;;;23.80;91.70;;;;;;5031538;28;20327;-25
2022/09/06 04:22:10;;;;;;;3.55;1.92;;;23.80;92.00;;;;;;5031757;28;20022;-25
2022/09/06 04:24:36;;;;;;;4.30;1.85;;;23.80;91.70;;;;;;5031746;28;20037;-25
2022/09/06 04:27:02;;;;;;;3.28;1.92;;;23.80;91.70;;;;;;5031687;28;20028;-26
2022/09/06 04:29:27;;;;;;;2.05;1.70;;;23.80;91.70;;;;;;5031656;28;20021;-25
2022/09/06 04:31:53;;;;;;;1.75;1.65;;;23.80;91.70;;;;;;5031730;28;20479;-25
2022/09/06 04:34:18;;;;;;;1.45;1.35;;;23.80;91.70;;;;;;5031590;28;20044;-25
2022/09/06 04:36:44;;;;;;;2.30;1.98;;;23.80;91.70;;;;;;5033096;28;20041;-25
2022/09/06 04:39:10;;;;;;;2.15;1.60;;;23.80;91.70;;;;;;5035431;28;20064;-25
2022/09/06 04:41:36;;;;;;;1.92;1.70;;;23.80;91.80;;;;;;5035305;28;20025;-25
2022/09/06 04:44:01;;;;;;;2.55;1.70;;;23.80;91.80;;;;;;5035409;28;20463;-25
2022/09/06 04:46:29;;;;;;;2.55;1.65;;;23.80;91.80;;;;;;5035428;28;20022;-25
2022/09/06 04:48:55;;;;;;;1.60;1.50;;;23.80;91.80;;;;;;5035002;28;20103;-25
2022/09/06 04:51:23;;;;;;;2.72;1.42;;;23.80;91.80;;;;;;5034183;28;20029;-25
2022/09/06 04:53:49;;;;;;;2.72;2.05;;;23.70;91.70;;;;;;5033958;28;20037;-26
2022/09/06 04:56:17;;;;;;;5.00;1.95;;;23.70;91.80;;;;;;5035415;28;20116;-25
2022/09/06 04:58:45;;;;;;;2.50;1.80;;;23.80;91.80;;;;;;5034685;28;20039;-25
2022/09/06 05:01:11;;;;;;;2.17;1.98;;;23.80;91.80;;;;;;5035512;28;20032;-25
2022/09/06 05:03:37;;;;;;;5.78;2.08;;;23.80;91.80;;;;;;5034919;28;20026;-25
2022/09/06 05:06:08;;;;;;;1.70;1.60;;;23.70;91.80;;;;;;5035093;28;20029;-25
2022/09/06 05:08:37;;;;;;;3.15;1.75;;;23.70;91.80;;;;;;5034961;28;20104;-25
2022/09/06 05:11:02;;;;;;;1.80;1.70;;;23.70;91.80;;;;;;5034781;28;20017;-25
2022/09/06 05:13:28;;;;;;;2.28;1.63;;;23.70;91.80;;;;;;5035077;28;20498;-25
2022/09/06 05:15:54;;;;;;;1.88;1.63;;;23.70;91.80;;;;;;5034989;28;20044;-25
2022/09/06 05:18:19;;;;;;;2.80;1.75;;;23.70;91.80;;;;;;5034604;28;20471;-25
2022/09/06 05:20:51;;;;;;;1.80;1.60;;;23.70;91.80;;;;;;5034738;28;20115;-25
2022/09/06 05:23:16;;;;;;;2.40;1.80;;;23.70;91.90;;;;;;5034993;28;20390;-25
2022/09/06 05:25:42;;;;;;;2.28;1.80;;;23.60;91.80;;;;;;5034795;28;20120;-25
2022/09/06 05:28:08;;;;;;;1.55;1.40;;;23.60;92.20;;;;;;5035233;28;20018;-25
2022/09/06 05:30:33;;;;;;;2.65;1.80;;;23.60;91.90;;;;;;5034304;28;20116;-25
2022/09/06 05:32:59;;;;;;;2.05;1.70;;;23.60;91.90;;;;;;5034949;28;20026;-25
2022/09/06 05:35:24;;;;;;;2.58;1.70;;;23.60;91.90;;;;;;5034925;28;20057;-25
2022/09/06 05:37:50;;;;;;;2.35;1.63;;;23.60;91.90;;;;;;5034872;28;20025;-25
2022/09/06 05:40:16;;;;;;;3.80;2.00;;;23.60;91.90;;;;;;5034466;28;20025;-25
2022/09/06 05:42:41;;;;;;;2.38;1.60;;;23.60;91.90;;;;;;5034927;28;20083;-25
2022/09/06 05:45:07;;;;;;;1.75;1.60;;;23.60;91.90;;;;;;5034707;28;20022;-25
2022/09/06 05:47:34;;;;;;;1.73;1.60;;;23.60;91.90;;;;;;5033469;28;20061;-25
2022/09/06 05:50:01;;;;;;;3.47;1.90;;;23.60;92.00;;;;;;5034132;28;20124;-25
2022/09/06 05:52:27;;;;;;;1.70;1.60;;;23.60;92.00;;;;;;5034857;28;20025;-25
2022/09/06 05:54:53;;;;;;;1.90;1.70;;;23.60;92.00;;;;;;5034792;28;20064;-25
2022/09/06 05:57:18;;;;;;;1.60;1.50;;;23.60;92.00;;;;;;5034259;28;20104;-25
2022/09/06 05:59:44;;;;;;;2.25;1.73;;;23.60;92.00;;;;;;5070006;22;20124;-23
2022/09/06 06:02:10;;;;;;;5.10;1.80;;;23.60;92.00;;;;;;5054237;28;20409;-23
2022/09/06 06:04:36;;;;;;;2.90;1.80;;;23.60;92.00;;;;;;5052801;28;20028;-23
2022/09/06 06:07:01;;;;;;;4.20;1.92;;;23.60;92.00;;;;;;5054248;28;20042;-23
2022/09/06 06:09:27;;;;;;;2.13;1.83;;;23.60;92.00;;;;;;5054072;28;20025;-23
2022/09/06 06:11:53;;;;;;;1.90;1.70;;;23.60;92.00;;;;;;5053999;28;20040;-23
2022/09/06 06:14:18;;;;;;;2.13;1.83;;;23.60;92.00;;;;;;5054261;28;20024;-23
2022/09/06 06:16:44;;;;;;;2.03;1.65;;;23.50;92.00;;;;;;5054100;28;20500;-23
2022/09/06 06:19:10;;;;;;;2.35;1.80;;;23.50;92.00;;;;;;5053671;28;20040;-23
2022/09/06 06:21:37;;;;;;;4.15;1.92;;;23.50;92.00;;;;;;5053599;28;20051;-23
2022/09/06 06:24:04;;;;;;;2.40;1.67;;;23.60;92.00;;;;;;5053937;28;20024;-24
2022/09/06 06:26:32;;;;;;;3.85;2.13;;;23.60;92.00;;;;;;5053552;28;20021;-23
2022/09/06 06:29:00;;;;;;;2.15;1.60;;;23.50;92.00;;;;;;5053910;28;20083;-23
2022/09/06 06:31:30;;;;;;;2.30;1.85;;;23.50;92.00;;;;;;5053606;28;20201;-23
2022/09/06 06:33:57;;;;;;;2.25;1.80;;;23.60;92.00;;;;;;5052012;28;20036;-23
2022/09/06 06:36:29;;;;;;;3.05;1.90;;;23.60;92.10;;;;;;5053243;28;20021;-23
2022/09/06 06:38:56;;;;;;;3.03;1.90;;;23.50;92.00;;;;;;5052969;28;20025;-23
2022/09/06 06:41:24;;;;;;;3.45;1.92;;;23.60;92.00;;;;;;5053836;28;20055;-23
2022/09/06 06:44:16;;;;;;;2.83;1.90;;;23.60;92.10;;;;;;5057757;28;20032;-23
2022/09/06 06:46:42;;;;;;;2.90;1.83;;;23.50;92.00;;;;;;5052086;28;20112;-23
2022/09/06 06:49:08;;;;;;;1.83;1.70;;;23.50;92.00;;;;;;5053502;28;20453;-23
2022/09/06 06:51:38;;;;;;;2.85;1.90;;;23.50;92.00;;;;;;5053518;28;20025;-23
2022/09/06 06:54:04;;;;;;;2.10;1.60;;;23.60;92.00;;;;;;5053590;28;20040;-23
2022/09/06 06:56:33;;;;;;;2.92;1.88;;;23.60;92.00;;;;;;5053684;28;20052;-23
2022/09/06 06:59:03;;;;;;;3.40;1.77;;;23.60;92.00;;;;;;5052715;28;20055;-23
2022/09/06 07:01:31;;;;;;;6.32;2.53;;;23.60;92.00;;;;;;5052946;28;20049;-23
2022/09/06 07:03:57;;;;;;;4.72;2.50;;;23.50;91.70;;;;;;5052936;28;20017;-23
2022/09/06 07:06:23;;;;;;;6.22;2.47;;;23.40;92.30;;;;;;5053336;28;20021;-23
2022/09/06 07:08:49;;;;;;;5.13;2.33;;;23.40;92.00;;;;;;5053661;28;20032;-23
2022/09/06 07:11:17;;;;;;;8.48;2.90;;;23.40;92.00;;;;;;5053332;28;20025;-23
2022/09/06 07:13:42;;;;;;;3.65;2.65;;;23.50;91.90;;;;;;5053346;28;20035;-23
2022/09/06 07:16:22;;;;;;;3.95;2.88;;;23.50;91.80;;;;;;5053367;28;20096;-23
2022/09/06 07:18:52;;;;;;;5.13;2.42;;;23.60;91.80;;;;;;5052750;28;20024;-23
2022/09/06 07:21:25;;;;;;;5.30;2.65;;;23.60;91.80;;;;;;5052849;28;20021;-23
2022/09/06 07:23:51;;;;;;;8.68;2.75;;;23.60;91.80;;;;;;5052712;28;20024;-23
2022/09/06 07:26:24;;;;;;;4.53;2.38;;;23.70;91.80;;;;;;5052764;28;20545;-23
2022/09/06 07:28:56;;;;;;;4.00;2.40;;;23.70;91.70;;;;;;5052716;28;20018;-24
2022/09/06 07:31:22;;;;;;;9.80;2.90;;;23.70;91.70;;;;;;5052360;28;20211;-23
2022/09/06 07:33:49;;;;;;;5.20;2.10;;;23.60;91.50;;;;;;5052423;28;20021;-23
2022/09/06 07:36:15;;;;;;;4.55;2.30;;;23.40;91.80;;;;;;5052240;28;20398;-23
2022/09/06 07:38:41;;;;;;;6.43;2.60;;;23.40;91.90;;;;;;5052215;28;20021;-23
2022/09/06 07:41:09;;;;;;;4.15;2.45;;;23.40;92.20;;;;;;5052317;28;20496;-23
2022/09/06 07:43:35;;;;;;;3.95;2.42;;;23.50;91.90;;;;;;5052307;28;20375;-23
2022/09/06 07:46:04;;;;;;;5.05;2.20;;;23.50;91.90;;;;;;5052233;28;20028;-23
2022/09/06 07:48:31;;;;;;;4.93;2.70;;;23.50;91.80;;;;;;5052041;28;20127;-23
2022/09/06 07:51:08;;;;;;;3.55;2.10;;;23.60;91.80;;;;;;5052242;28;20040;-23
2022/09/06 07:53:35;;;;;;;3.63;2.50;;;23.70;91.80;;;;;;5052236;28;20025;-23
2022/09/06 07:56:02;;;;;;;5.43;2.58;;;23.60;91.80;;;;;;5052432;28;20036;-23
2022/09/06 07:58:29;;;;;;;5.80;2.65;;;23.70;91.70;;;;;;5051963;28;20512;-23
2022/09/06 08:01:17;;;;;;;4.40;2.45;;;23.80;91.70;;;;;;5052261;28;20489;-23
2022/09/06 08:03:45;;;;;;;6.15;2.50;;;23.80;91.70;;;;;;5051020;28;20029;-23
2022/09/06 08:06:10;;;;;;;2.85;2.20;;;23.80;91.70;;;;;;5052682;28;20022;-23
2022/09/06 08:08:36;;;;;;;3.08;2.20;;;23.80;91.60;;;;;;5051824;28;20021;-23
2022/09/06 08:11:02;;;;;;;8.10;2.53;;;23.90;91.60;;;;;;5052302;28;20025;-23
2022/09/06 08:13:28;;;;;;;4.55;2.05;;;23.90;91.50;;;;;;5056219;28;20047;-23
2022/09/06 08:16:02;;;;;;;4.25;2.20;;;24.00;91.50;;;;;;5054790;28;20490;-23
2022/09/06 08:18:27;;;;;;;3.88;2.38;;;24.00;91.50;;;;;;5055004;28;20389;-23
2022/09/06 08:20:53;;;;;;;3.40;1.98;;;24.00;91.50;;;;;;5055998;28;20025;-23
2022/09/06 08:23:19;;;;;;;2.85;2.15;;;24.00;91.50;;;;;;5056337;28;20109;-23
2022/09/06 08:25:57;;;;;;;3.65;2.28;;;24.00;91.50;;;;;;5056176;28;20096;-23
2022/09/06 08:28:23;;;;;;;3.60;2.10;;;24.10;91.50;;;;;;5054451;28;20116;-23
2022/09/06 08:30:49;;;;;;;2.92;2.00;;;24.10;91.50;;;;;;5055564;28;20101;-23
2022/09/06 08:33:18;;;;;;;5.78;2.30;;;24.10;91.40;;;;;;5055667;28;20108;-23
2022/09/06 08:35:55;;;;;;;3.75;2.17;;;24.10;91.50;;;;;;5055675;28;20100;-23
2022/09/06 08:38:20;;;;;;;2.55;2.13;;;24.20;91.50;;;;;;5055533;28;20044;-23
2022/09/06 08:40:46;;;;;;;2.42;2.08;;;24.20;91.40;;;;;;5055422;28;20110;-23
2022/09/06 08:43:19;;;;;;;3.10;2.00;;;24.20;91.40;;;;;;5055791;28;20032;-24
2022/09/06 08:45:48;;;;;;;3.03;1.80;;;24.20;91.40;;;;;;5055682;28;20477;-24
2022/09/06 08:48:13;;;;;;;3.08;2.00;;;24.30;91.40;;;;;;5055419;28;20025;-23
2022/09/06 08:50:46;;;;;;;4.32;2.22;;;24.30;91.40;;;;;;5055288;28;20502;-23
2022/09/06 08:53:18;;;;;;;3.30;2.08;;;24.30;91.30;;;;;;5055325;28;20037;-23
2022/09/06 08:56:02;;;;;;;2.83;1.90;;;24.40;91.30;;;;;;5055391;28;20107;-23
2022/09/06 08:58:46;;;;;;;3.00;1.80;;;24.40;91.30;;;;;;5055044;28;20367;-23
2022/09/06 09:01:17;;;;;;;2.35;1.95;;;24.40;91.30;;;;;;5055186;28;20433;-23
2022/09/06 09:03:44;;;;;;;6.13;1.77;;;24.40;91.30;;;;;;5055185;28;20482;-23
2022/09/06 09:06:10;;;;;;;2.10;1.63;;;24.40;91.30;;;;;;5053659;28;20021;-23
2022/09/06 09:09:07;;;;;;;2.90;1.85;;;24.50;91.30;;;;;;5053392;28;20075;-23
2022/09/06 09:11:34;;;;;;;3.58;1.90;;;24.50;91.30;;;;;;5055018;28;20032;-23
2022/09/06 09:14:12;;;;;;;2.85;2.03;;;24.50;91.30;;;;;;5053569;28;20394;-23
2022/09/06 09:16:38;;;;;;;2.63;1.70;;;24.50;91.40;;;;;;5055292;28;20025;-23
2022/09/06 09:19:05;;;;;;;2.85;2.10;;;24.40;91.30;;;;;;5054560;28;20508;-23
2022/09/06 09:21:36;;;;;;;3.45;1.83;;;24.40;91.40;;;;;;5054685;28;20083;-23
2022/09/06 09:24:14;;;;;;;5.57;1.73;;;24.50;91.40;;;;;;5055020;28;20048;-23
2022/09/06 09:26:48;;;;;;;3.00;1.90;;;24.40;91.40;;;;;;5054694;28;20096;-23
2022/09/06 09:29:15;;;;;;;2.00;1.80;;;24.40;91.50;;;;;;5053275;28;20033;-23
2022/09/06 09:31:46;;;;;;;3.15;1.90;;;24.40;91.50;;;;;;5054832;28;20560;-23
2022/09/06 09:34:34;;;;;;;2.42;1.95;;;24.40;91.50;;;;;;5054611;28;20489;-23
2022/09/06 09:37:25;;;;;;;5.15;1.85;;;24.50;91.50;;;;;;5054398;28;20393;-23
2022/09/06 09:39:56;;;;;;;4.20;2.13;;;24.50;91.50;;;;;;5054365;28;20080;-24
2022/09/06 09:42:32;;;;;;;2.97;1.85;;;24.50;91.50;;;;;;5054469;28;20025;-23
2022/09/06 09:44:59;;;;;;;2.65;1.70;;;24.60;91.50;;;;;;5054769;28;20021;-23
2022/09/06 09:47:30;;;;;;;4.38;2.00;;;24.60;91.40;;;;;;5054402;28;20033;-23
2022/09/06 09:49:56;;;;;;;2.63;1.88;;;24.70;91.40;;;;;;5053933;28;20025;-23
2022/09/06 09:52:30;;;;;;;2.17;1.58;;;24.70;91.40;;;;;;5054344;28;20025;-23
2022/09/06 09:55:06;;;;;;;3.10;1.63;;;24.80;91.40;;;;;;5054278;28;20030;-23
2022/09/06 09:57:44;;;;;;;2.45;1.73;;;24.80;91.40;;;;;;5054704;28;20039;-23
2022/09/06 10:00:12;;;;;;;2.70;1.80;;;24.90;91.30;;;;;;5054235;28;20056;-23
2022/09/06 10:02:39;;;;;;;3.65;1.70;;;24.90;91.30;;;;;;5054203;28;20024;-24
2022/09/06 10:05:11;;;;;;;4.28;1.85;;;24.90;91.30;;;;;;5053970;28;20025;-24
2022/09/06 10:07:53;;;;;;;3.25;1.90;;;25.00;91.30;;;;;;5053939;28;20474;-23
2022/09/06 10:10:27;;;;;;;2.88;1.70;;;25.00;91.30;;;;;;5053786;28;20025;-23
2022/09/06 10:13:20;;;;;;;3.70;1.67;;;25.00;91.30;;;;;;5054352;28;20036;-23
2022/09/06 10:15:47;;;;;;;7.22;2.28;;;25.10;91.30;;;;;;5050176;28;20029;-23
2022/09/06 10:18:29;;;;;;;3.78;2.15;;;25.10;91.30;;;;;;5059820;28;20040;-23
2022/09/06 10:21:05;;;;;;;15.70;2.78;;;25.10;91.30;;;;;;5057300;28;20029;-23
2022/09/06 10:24:08;;;;;;;11.45;3.00;;;25.20;93.60;;;;;;5054359;28;20021;-23
2022/09/06 10:26:49;;;;;;;11.98;3.25;;;25.20;93.80;;;;;;5054430;28;20032;-24
2022/09/06 10:29:25;;;;;;;15.82;3.15;;;25.10;93.70;;;;;;5053658;28;20029;-23
2022/09/06 10:32:20;;;;;;;12.77;3.05;;;25.10;93.70;;;;;;5054017;28;20021;-24
2022/09/06 10:35:22;;;;;;;14.20;2.65;;;25.00;93.70;;;;;;5027127;28;20129;-23
2022/09/06 10:37:57;;;;;;;12.35;2.65;;;24.90;93.70;;;;;;5053695;28;20540;-24
2022/09/06 10:40:29;;;;;;;12.57;2.97;;;24.90;93.60;;;;;;5053137;28;20036;-24
2022/09/06 10:42:58;;;;;;;11.20;3.22;;;24.80;93.60;;;;;;5053289;28;20104;-24
2022/09/06 10:45:34;;;;;;;7.63;2.83;;;24.70;93.50;;;;;;5053138;28;20036;-24
2022/09/06 10:48:29;;;;;;;7.82;2.83;;;24.70;93.50;;;;;;5053155;28;20382;-24
2022/09/06 10:51:05;;;;;;;7.53;2.90;;;24.70;93.50;;;;;;5051796;28;20482;-24
2022/09/06 10:53:47;;;;;;;5.80;2.47;;;24.60;93.50;;;;;;5052714;28;20498;-24
2022/09/06 10:56:26;;;;;;;7.72;2.67;;;24.60;93.50;;;;;;5053338;28;20029;-24
2022/09/06 10:59:27;;;;;;;8.77;2.83;;;24.50;93.50;;;;;;5053401;28;20040;-24
2022/09/06 11:02:14;;;;;;;7.18;2.70;;;24.50;93.50;;;;;;5049218;28;20036;-24
2022/09/06 11:04:43;;;;;;;9.95;2.42;;;24.50;93.50;;;;;;5052775;28;20021;-23
2022/09/06 11:07:30;;;;;;;9.75;2.88;;;24.50;93.50;;;;;;5053217;28;20017;-23
2022/09/06 11:10:08;;;;;;;8.68;2.38;;;24.50;93.50;;;;;;5053022;28;20064;-23
2022/09/06 11:12:41;;;;;;;6.78;2.40;;;24.50;93.50;;;;;;5052345;28;20064;-23
2022/09/06 11:15:11;;;;;;;5.05;2.45;;;24.50;93.50;;;;;;5053239;28;20075;-24
2022/09/06 11:18:09;;;;;;;10.15;2.40;;;24.50;93.50;;;;;;5055191;28;20535;-23
2022/09/06 11:20:41;;;;;;;7.38;2.13;;;24.50;93.40;;;;;;5053994;28;20526;-24
2022/09/06 11:23:09;;;;;;;7.10;2.30;;;24.50;93.40;;;;;;5052620;28;20482;-24
2022/09/06 11:26:07;;;;;;;6.78;2.63;;;24.50;93.40;;;;;;5052267;28;20025;-24
2022/09/06 11:28:44;;;;;;;16.55;3.00;;;24.60;93.30;;;;;;5052170;28;20025;-24
2022/09/06 11:31:17;;;;;;;12.75;2.70;;;24.60;94.00;;;;;;5052720;28;20021;-24
2022/09/06 11:33:43;;;;;;;11.73;2.67;;;24.70;94.10;;;;;;5052228;28;20418;-24
2022/09/06 11:36:38;;;;;;;13.75;2.60;;;24.80;93.90;;;;;;5050886;28;20021;-24
2022/09/06 11:39:05;;;;;;;;;;;24.80;93.80;;;;;;5052600;28;20025;-24
2022/09/06 11:41:35;;;;;;;17.98;2.65;;;24.80;93.70;;;;;;5053379;28;20080;-24
2022/09/06 11:44:02;;;;;;;11.95;2.65;;;24.80;93.60;;;;;;5051855;28;20032;-24
2022/09/06 11:46:33;;;;;;;11.02;2.30;;;24.80;93.50;;;;;;5051910;28;20021;-23
2022/09/06 11:49:01;;;;;;;10.32;2.50;;;24.90;93.50;;;;;;5052579;28;20029;-23
2022/09/06 11:51:32;;;;;;;10.70;2.65;;;24.80;93.40;;;;;;5052902;28;20021;-23
2022/09/06 11:54:15;;;;;;;8.63;2.10;;;24.90;93.40;;;;;;5052716;28;20079;-23
2022/09/06 11:56:51;;;;;;;10.95;2.55;;;24.90;93.30;;;;;;5053216;28;20032;-23
2022/09/06 11:59:23;;;;;;;6.55;2.20;;;24.90;93.30;;;;;;5091643;22;20021;-26
2022/09/06 12:01:54;;;;;;;8.32;2.50;;;24.90;93.20;;;;;;5031718;28;20030;-26
2022/09/06 12:04:21;;;;;;;6.40;2.30;;;24.90;93.10;;;;;;5031848;28;20041;-26
2022/09/06 12:07:19;;;;;;;8.18;2.10;;;25.00;93.10;;;;;;5032158;28;20371;-26
2022/09/06 12:09:45;;;;;;;8.40;2.33;;;25.00;93.00;;;;;;5008834;28;20061;-26
2022/09/06 12:12:30;;;;;;;7.40;2.33;;;25.00;92.90;;;;;;5031813;28;20483;-26
2022/09/06 12:14:56;;;;;;;6.50;2.03;;;25.10;92.90;;;;;;5031808;28;20137;-26
2022/09/06 12:17:23;;;;;;;5.45;2.03;;;25.10;92.90;;;;;;5031771;28;20522;-26
2022/09/06 12:19:53;;;;;;;6.80;2.10;;;25.10;92.80;;;;;;5031584;28;20437;-26
2022/09/06 12:22:34;;;;;;;7.55;1.90;;;25.20;92.80;;;;;;5031537;28;20021;-26
2022/09/06 12:25:35;;;;;;;6.20;2.00;;;25.20;92.70;;;;;;5031932;28;20026;-26
2022/09/06 12:28:04;;;;;;;6.38;1.73;;;25.20;92.70;;;;;;5031564;28;20017;-26
2022/09/06 12:30:36;;;;;;;7.93;1.95;;;25.20;92.70;;;;;;5031823;28;20029;-26
2022/09/06 12:33:42;;;;;;;5.05;1.70;;;25.20;92.60;;;;;;5031660;28;20508;-26
2022/09/06 12:36:30;;;;;;;7.25;2.55;;;25.30;92.60;;;;;;5029359;28;20072;-26
2022/09/06 12:39:10;;;;;;;6.60;2.05;;;25.30;92.60;;;;;;5031458;28;20018;-26
2022/09/06 12:41:39;;;;;;;4.05;1.73;;;25.30;92.50;;;;;;5031872;28;20367;-26
2022/09/06 12:44:06;;;;;;;5.10;1.80;;;25.30;92.50;;;;;;5031797;28;20026;-26
2022/09/06 12:46:32;;;;;;;8.18;1.60;;;25.30;92.40;;;;;;5031723;28;20029;-26
2022/09/06 12:49:06;;;;;;;6.60;1.80;;;25.30;92.40;;;;;;5033548;28;20049;-26
2022/09/06 12:51:33;;;;;;;3.83;1.63;;;25.30;92.40;;;;;;5033519;28;20018;-26
2022/09/06 12:54:03;;;;;;;5.07;1.60;;;25.30;92.40;;;;;;5034088;28;20160;-26
2022/09/06 12:56:33;;;;;;;7.30;1.73;;;25.30;92.40;;;;;;5033325;28;20018;-26
2022/09/06 12:59:20;;;;;;;6.60;1.92;;;25.30;92.40;;;;;;5034793;28;20022;-26
2022/09/06 13:01:59;;;;;;;5.20;1.85;;;25.30;92.40;;;;;;5035209;28;20029;-26
2022/09/06 13:04:50;;;;;;;3.47;1.55;;;25.30;92.40;;;;;;5035339;28;20017;-26
2022/09/06 13:07:19;;;;;;;4.78;1.58;;;25.30;92.40;;;;;;5035377;28;20021;-26